JBU1230 TNCC-TNCM
Flight info
| Callsign | JBU1230 |
|---|---|
| Flight time | N/A |
| Altitude | 37000 |
| Route | SCAPA1K SCAPA L335 MLIZA L204 GOUDA ULUBA1 |
| Aircraft | A320/M-SDE3FGHIRWY/LB1 |
Departure
| Time | N/A |
|---|---|
| Airport | Hato International Airport (TNCC) |
Arrival
| Time | 2026-05-03 21:10 |
|---|---|
| Airport | Princess Juliana International Airport (TNCM) |
| Time | Latitude | Longitude | Altitude | Speed | Heading |
|---|---|---|---|---|---|
| 2026-05-03 20:15 | 16.76439 | -65.98060 | 32161 ft | 434 kts | 56° |
| 2026-05-03 20:15 | 16.78065 | -65.95376 | 31669 ft | 431 kts | 56° |
| 2026-05-03 20:15 | 16.79642 | -65.92765 | 31201 ft | 429 kts | 56° |
| 2026-05-03 20:15 | 16.81223 | -65.90144 | 30731 ft | 426 kts | 57° |
| 2026-05-03 20:16 | 16.82787 | -65.87553 | 30283 ft | 423 kts | 56° |
| 2026-05-03 20:16 | 16.84356 | -65.84953 | 29785 ft | 421 kts | 56° |
| 2026-05-03 20:16 | 16.85908 | -65.82381 | 29270 ft | 418 kts | 57° |
| 2026-05-03 20:16 | 16.87450 | -65.79824 | 28793 ft | 415 kts | 57° |
| 2026-05-03 20:17 | 16.88987 | -65.77282 | 28313 ft | 412 kts | 56° |
| 2026-05-03 20:17 | 16.90496 | -65.74792 | 27878 ft | 410 kts | 56° |
| 2026-05-03 20:17 | 16.92012 | -65.72293 | 27461 ft | 407 kts | 57° |
| 2026-05-03 20:17 | 16.93518 | -65.69802 | 27038 ft | 405 kts | 57° |
| 2026-05-03 20:18 | 16.95016 | -65.67314 | 26629 ft | 402 kts | 57° |
| 2026-05-03 20:18 | 16.96502 | -65.64846 | 26232 ft | 400 kts | 57° |
| 2026-05-03 20:18 | 16.97979 | -65.62397 | 25870 ft | 398 kts | 57° |
| 2026-05-03 20:18 | 16.99448 | -65.59963 | 25494 ft | 396 kts | 57° |
| 2026-05-03 20:19 | 17.00912 | -65.57528 | 25131 ft | 393 kts | 57° |
| 2026-05-03 20:19 | 17.02345 | -65.55147 | 24771 ft | 391 kts | 57° |
| 2026-05-03 20:19 | 17.03792 | -65.52744 | 24395 ft | 389 kts | 57° |
| 2026-05-03 20:19 | 17.05229 | -65.50357 | 24015 ft | 387 kts | 57° |
| 2026-05-03 20:20 | 17.06656 | -65.47983 | 23653 ft | 385 kts | 57° |
| 2026-05-03 20:20 | 17.08072 | -65.45625 | 23201 ft | 383 kts | 57° |
| 2026-05-03 20:20 | 17.09484 | -65.43273 | 22738 ft | 381 kts | 57° |
| 2026-05-03 20:20 | 17.10890 | -65.40933 | 22269 ft | 379 kts | 57° |
| 2026-05-03 20:21 | 17.12272 | -65.38632 | 21801 ft | 378 kts | 57° |
| 2026-05-03 20:21 | 17.13683 | -65.36284 | 21342 ft | 376 kts | 57° |
| 2026-05-03 20:21 | 17.15054 | -65.34001 | 20888 ft | 375 kts | 57° |
| 2026-05-03 20:21 | 17.16434 | -65.31702 | 20437 ft | 374 kts | 57° |
| 2026-05-03 20:22 | 17.17813 | -65.29409 | 19998 ft | 372 kts | 57° |
| 2026-05-03 20:22 | 17.19189 | -65.27119 | 19553 ft | 371 kts | 57° |
| 2026-05-03 20:22 | 17.20559 | -65.24835 | 19125 ft | 370 kts | 57° |
| 2026-05-03 20:22 | 17.21929 | -65.22551 | 18703 ft | 369 kts | 57° |
| 2026-05-03 20:23 | 17.23270 | -65.20311 | 18305 ft | 368 kts | 58° |
| 2026-05-03 20:23 | 17.24636 | -65.18027 | 17852 ft | 366 kts | 58° |
| 2026-05-03 20:23 | 17.25965 | -65.15800 | 17446 ft | 363 kts | 58° |
| 2026-05-03 20:23 | 17.27294 | -65.13576 | 17050 ft | 360 kts | 58° |
| 2026-05-03 20:24 | 17.28615 | -65.11365 | 16671 ft | 356 kts | 58° |
| 2026-05-03 20:24 | 17.29926 | -65.09175 | 16283 ft | 353 kts | 58° |
| 2026-05-03 20:24 | 17.30910 | -65.07327 | 15973 ft | 350 kts | 64° |
| 2026-05-03 20:24 | 17.31968 | -65.05046 | 15602 ft | 346 kts | 64° |
| 2026-05-03 20:25 | 17.32979 | -65.02804 | 15250 ft | 343 kts | 65° |
| 2026-05-03 20:25 | 17.33988 | -65.00533 | 14892 ft | 340 kts | 65° |
| 2026-05-03 20:25 | 17.34966 | -64.98323 | 14546 ft | 336 kts | 65° |
| 2026-05-03 20:25 | 17.35945 | -64.96113 | 14209 ft | 333 kts | 65° |
| 2026-05-03 20:26 | 17.36919 | -64.93923 | 13858 ft | 330 kts | 65° |
| 2026-05-03 20:26 | 17.37889 | -64.91756 | 13472 ft | 328 kts | 65° |
| 2026-05-03 20:26 | 17.38856 | -64.89604 | 13079 ft | 325 kts | 65° |
| 2026-05-03 20:26 | 17.39814 | -64.87471 | 12690 ft | 323 kts | 65° |
| 2026-05-03 20:27 | 17.40762 | -64.85352 | 12295 ft | 321 kts | 65° |
| 2026-05-03 20:27 | 17.41707 | -64.83234 | 11922 ft | 319 kts | 65° |
| 2026-05-03 20:27 | 17.42642 | -64.81140 | 11542 ft | 317 kts | 66° |
| 2026-05-03 20:27 | 17.43579 | -64.79045 | 11184 ft | 315 kts | 66° |
| 2026-05-03 20:28 | 17.44494 | -64.76998 | 10816 ft | 314 kts | 66° |
| 2026-05-03 20:28 | 17.45419 | -64.74935 | 10466 ft | 312 kts | 66° |
| 2026-05-03 20:28 | 17.46338 | -64.72881 | 10099 ft | 310 kts | 66° |
| 2026-05-03 20:28 | 17.47246 | -64.70857 | 9930 ft | 302 kts | 66° |
| 2026-05-03 20:29 | 17.48123 | -64.68901 | 9756 ft | 293 kts | 66° |
| 2026-05-03 20:29 | 17.48966 | -64.67015 | 9459 ft | 290 kts | 66° |
| 2026-05-03 20:29 | 17.49807 | -64.65134 | 9142 ft | 288 kts | 67° |
| 2026-05-03 20:29 | 17.50652 | -64.63245 | 8807 ft | 286 kts | 67° |
| 2026-05-03 20:30 | 17.51490 | -64.61366 | 8487 ft | 284 kts | 67° |
| 2026-05-03 20:30 | 17.52319 | -64.59503 | 8176 ft | 282 kts | 67° |
| 2026-05-03 20:30 | 17.53145 | -64.57647 | 7872 ft | 280 kts | 67° |
| 2026-05-03 20:30 | 17.53958 | -64.55820 | 7736 ft | 271 kts | 67° |
| 2026-05-03 20:31 | 17.54738 | -64.54065 | 7611 ft | 262 kts | 67° |
| 2026-05-03 20:31 | 17.55496 | -64.52358 | 7492 ft | 254 kts | 67° |
| 2026-05-03 20:31 | 17.56231 | -64.50710 | 7371 ft | 246 kts | 67° |
| 2026-05-03 20:31 | 17.56941 | -64.49120 | 7253 ft | 237 kts | 67° |
| 2026-05-03 20:32 | 17.57627 | -64.47582 | 7153 ft | 228 kts | 67° |
| 2026-05-03 20:32 | 17.58282 | -64.46113 | 7059 ft | 225 kts | 67° |
| 2026-05-03 20:32 | 17.58940 | -64.44631 | 7053 ft | 224 kts | 68° |
| 2026-05-03 20:32 | 17.59596 | -64.43148 | 7058 ft | 224 kts | 68° |
| 2026-05-03 20:33 | 17.60253 | -64.41665 | 7065 ft | 224 kts | 67° |
| 2026-05-03 20:33 | 17.60910 | -64.40183 | 7060 ft | 225 kts | 67° |
| 2026-05-03 20:33 | 17.61572 | -64.38697 | 7056 ft | 225 kts | 67° |
| 2026-05-03 20:33 | 17.62278 | -64.37106 | 7062 ft | 260 kts | 67° |
| 2026-05-03 20:34 | 17.63057 | -64.35348 | 7056 ft | 274 kts | 67° |
| 2026-05-03 20:34 | 17.63877 | -64.33507 | 7059 ft | 276 kts | 67° |
| 2026-05-03 20:34 | 17.64681 | -64.31701 | 7050 ft | 277 kts | 67° |
| 2026-05-03 20:34 | 17.65492 | -64.29877 | 7058 ft | 278 kts | 67° |
| 2026-05-03 20:35 | 17.66309 | -64.28039 | 7051 ft | 277 kts | 67° |
| 2026-05-03 20:35 | 17.67122 | -64.26212 | 7048 ft | 277 kts | 67° |
| 2026-05-03 20:35 | 17.67937 | -64.24380 | 7054 ft | 278 kts | 67° |
| 2026-05-03 20:35 | 17.68747 | -64.22545 | 7052 ft | 277 kts | 67° |
| 2026-05-03 20:36 | 17.69560 | -64.20704 | 7046 ft | 277 kts | 67° |
| 2026-05-03 20:36 | 17.70372 | -64.18874 | 7060 ft | 277 kts | 67° |
| 2026-05-03 20:36 | 17.71183 | -64.17048 | 7057 ft | 277 kts | 67° |
| 2026-05-03 20:36 | 17.71981 | -64.15248 | 7059 ft | 277 kts | 67° |
| 2026-05-03 20:37 | 17.72792 | -64.13420 | 7056 ft | 276 kts | 67° |
| 2026-05-03 20:37 | 17.73604 | -64.11585 | 7053 ft | 276 kts | 68° |
| 2026-05-03 20:37 | 17.74411 | -64.09759 | 7045 ft | 276 kts | 67° |
| 2026-05-03 20:37 | 17.75221 | -64.07927 | 7045 ft | 276 kts | 67° |
| 2026-05-03 20:38 | 17.76026 | -64.06104 | 7043 ft | 276 kts | 67° |
| 2026-05-03 20:38 | 17.76838 | -64.04265 | 7042 ft | 276 kts | 67° |
| 2026-05-03 20:38 | 17.77631 | -64.02466 | 7059 ft | 276 kts | 67° |
| 2026-05-03 20:38 | 17.78450 | -64.00612 | 7057 ft | 276 kts | 67° |
| 2026-05-03 20:39 | 17.79244 | -63.98813 | 7050 ft | 276 kts | 67° |
| 2026-05-03 20:39 | 17.80052 | -63.96980 | 7058 ft | 276 kts | 67° |
| 2026-05-03 20:39 | 17.80858 | -63.95156 | 7056 ft | 276 kts | 67° |
| 2026-05-03 20:39 | 17.81663 | -63.93333 | 7044 ft | 276 kts | 67° |
| 2026-05-03 20:40 | 17.82470 | -63.91508 | 7044 ft | 275 kts | 67° |
| 2026-05-03 20:40 | 17.83275 | -63.89682 | 7053 ft | 275 kts | 67° |
| 2026-05-03 20:40 | 17.84067 | -63.87887 | 7044 ft | 275 kts | 67° |
| 2026-05-03 20:40 | 17.84777 | -63.86281 | 7049 ft | 275 kts | 68° |
| 2026-05-03 20:41 | 17.85574 | -63.84452 | 7042 ft | 275 kts | 67° |
| 2026-05-03 20:41 | 17.86360 | -63.82664 | 7052 ft | 274 kts | 67° |
| 2026-05-03 20:41 | 17.87165 | -63.80839 | 7055 ft | 275 kts | 67° |
| 2026-05-03 20:41 | 17.87971 | -63.79018 | 7047 ft | 275 kts | 67° |
| 2026-05-03 20:42 | 17.88736 | -63.77285 | 7053 ft | 275 kts | 67° |
| 2026-05-03 20:42 | 17.89480 | -63.75592 | 7050 ft | 275 kts | 67° |
| 2026-05-03 20:42 | 17.90277 | -63.73773 | 7057 ft | 275 kts | 67° |
| 2026-05-03 20:42 | 17.91078 | -63.71947 | 7054 ft | 276 kts | 67° |
| 2026-05-03 20:43 | 17.91879 | -63.70122 | 7052 ft | 276 kts | 67° |
| 2026-05-03 20:43 | 17.92671 | -63.68318 | 7056 ft | 275 kts | 67° |
| 2026-05-03 20:43 | 17.93443 | -63.66478 | 7049 ft | 274 kts | 72° |
| 2026-05-03 20:43 | 17.93991 | -63.64576 | 7053 ft | 274 kts | 75° |
| 2026-05-03 20:44 | 17.94534 | -63.62659 | 7057 ft | 273 kts | 75° |
| 2026-05-03 20:44 | 17.95078 | -63.60744 | 7053 ft | 273 kts | 75° |
| 2026-05-03 20:44 | 17.95621 | -63.58837 | 7057 ft | 272 kts | 75° |
| 2026-05-03 20:44 | 17.96163 | -63.56928 | 7053 ft | 273 kts | 75° |
| 2026-05-03 20:45 | 17.96661 | -63.55164 | 7052 ft | 273 kts | 75° |
| 2026-05-03 20:45 | 17.97184 | -63.53311 | 7062 ft | 273 kts | 75° |
| 2026-05-03 20:45 | 17.97645 | -63.51682 | 7056 ft | 274 kts | 75° |
| 2026-05-03 20:45 | 17.98204 | -63.49705 | 7059 ft | 273 kts | 75° |
| 2026-05-03 20:46 | 17.98744 | -63.47793 | 7059 ft | 273 kts | 75° |
| 2026-05-03 20:46 | 17.99207 | -63.45860 | 7060 ft | 272 kts | 83° |
| 2026-05-03 20:46 | 17.99473 | -63.43894 | 7056 ft | 273 kts | 83° |
| 2026-05-03 20:46 | 17.99740 | -63.41923 | 7055 ft | 272 kts | 83° |
| 2026-05-03 20:47 | 18.00013 | -63.39974 | 7061 ft | 273 kts | 83° |
| 2026-05-03 20:47 | 18.00434 | -63.38034 | 7054 ft | 274 kts | 67° |
| 2026-05-03 20:47 | 18.01583 | -63.36451 | 7005 ft | 277 kts | 41° |
| 2026-05-03 20:47 | 18.03283 | -63.35562 | 6684 ft | 281 kts | 14° |
| 2026-05-03 20:48 | 18.05263 | -63.35503 | 6345 ft | 284 kts | 357° |
| 2026-05-03 20:48 | 18.07214 | -63.35726 | 5990 ft | 285 kts | 355° |
| 2026-05-03 20:48 | 18.09097 | -63.35972 | 5684 ft | 284 kts | 355° |
| 2026-05-03 20:48 | 18.11053 | -63.36309 | 5359 ft | 285 kts | 344° |
| 2026-05-03 20:49 | 18.12748 | -63.37358 | 5061 ft | 287 kts | 316° |
| 2026-05-03 20:49 | 18.13827 | -63.39104 | 4726 ft | 286 kts | 288° |
| 2026-05-03 20:49 | 18.14041 | -63.41152 | 4392 ft | 283 kts | 260° |
| 2026-05-03 20:49 | 18.13359 | -63.43051 | 4064 ft | 276 kts | 231° |
| 2026-05-03 20:50 | 18.12029 | -63.44411 | 3930 ft | 261 kts | 208° |
| 2026-05-03 20:50 | 18.10426 | -63.45104 | 3806 ft | 246 kts | 187° |
| 2026-05-03 20:50 | 18.08772 | -63.45141 | 3684 ft | 232 kts | 167° |
| 2026-05-03 20:50 | 18.07302 | -63.44608 | 3558 ft | 218 kts | 148° |
| 2026-05-03 20:51 | 18.06143 | -63.43659 | 3437 ft | 206 kts | 131° |
| 2026-05-03 20:51 | 18.05349 | -63.42439 | 3193 ft | 202 kts | 114° |
| 2026-05-03 20:51 | 18.04899 | -63.41049 | 3036 ft | 200 kts | 107° |
| 2026-05-03 20:51 | 18.04484 | -63.39643 | 3012 ft | 203 kts | 107° |
| 2026-05-03 20:52 | 18.04059 | -63.38230 | 3008 ft | 203 kts | 108° |
| 2026-05-03 20:52 | 18.03637 | -63.36834 | 3010 ft | 202 kts | 108° |
| 2026-05-03 20:52 | 18.03208 | -63.35412 | 3008 ft | 202 kts | 108° |
| 2026-05-03 20:52 | 18.02781 | -63.33995 | 3008 ft | 203 kts | 108° |
| 2026-05-03 20:53 | 18.02360 | -63.32595 | 3007 ft | 203 kts | 108° |
| 2026-05-03 20:53 | 18.01934 | -63.31180 | 3012 ft | 204 kts | 108° |
| 2026-05-03 20:53 | 18.01552 | -63.29750 | 3007 ft | 203 kts | 98° |
| 2026-05-03 20:53 | 18.01595 | -63.28268 | 3011 ft | 205 kts | 83° |
| 2026-05-03 20:54 | 18.01727 | -63.27407 | 2885 ft | 209 kts | 83° |
| 2026-05-03 20:54 | 18.02233 | -63.23938 | 2286 ft | 202 kts | 84° |
| 2026-05-03 20:54 | 18.02437 | -63.22520 | 2063 ft | 190 kts | 83° |
| 2026-05-03 20:55 | 18.02621 | -63.21241 | 1808 ft | 180 kts | 83° |
| 2026-05-03 20:55 | 18.02796 | -63.20014 | 1563 ft | 165 kts | 82° |
| 2026-05-03 20:55 | 18.02961 | -63.18850 | 1345 ft | 160 kts | 84° |
| 2026-05-03 20:55 | 18.03123 | -63.17702 | 1143 ft | 157 kts | 84° |
| 2026-05-03 20:56 | 18.03273 | -63.16572 | 992 ft | 158 kts | 88° |
| 2026-05-03 20:56 | 18.02993 | -63.15482 | 1315 ft | 159 kts | 129° |
| 2026-05-03 20:56 | 18.02041 | -63.14858 | 1569 ft | 174 kts | 159° |
| 2026-05-03 20:56 | 18.00800 | -63.14515 | 1698 ft | 195 kts | 164° |
| 2026-05-03 20:57 | 17.99924 | -63.14316 | 1961 ft | 202 kts | 165° |
| 2026-05-03 20:57 | 17.98093 | -63.13910 | 2760 ft | 204 kts | 165° |
| 2026-05-03 20:57 | 17.96699 | -63.13610 | 3371 ft | 205 kts | 165° |
| 2026-05-03 20:57 | 17.95297 | -63.13305 | 3865 ft | 209 kts | 165° |
| 2026-05-03 20:58 | 17.93870 | -63.12996 | 3977 ft | 209 kts | 165° |
| 2026-05-03 20:58 | 17.92454 | -63.12695 | 4002 ft | 209 kts | 165° |
| 2026-05-03 20:58 | 17.91487 | -63.12488 | 4008 ft | 209 kts | 165° |
| 2026-05-03 20:58 | 17.90066 | -63.12346 | 4006 ft | 211 kts | 187° |
| 2026-05-03 20:59 | 17.88741 | -63.13032 | 4007 ft | 220 kts | 223° |
| 2026-05-03 20:59 | 17.87990 | -63.14433 | 4012 ft | 226 kts | 256° |
| 2026-05-03 20:59 | 17.87776 | -63.16077 | 4009 ft | 229 kts | 264° |
| 2026-05-03 20:59 | 17.87664 | -63.17749 | 4012 ft | 230 kts | 265° |
| 2026-05-03 21:00 | 17.87572 | -63.19425 | 4010 ft | 230 kts | 265° |
| 2026-05-03 21:00 | 17.87516 | -63.20538 | 4012 ft | 230 kts | 265° |
| 2026-05-03 21:00 | 17.87394 | -63.22783 | 4010 ft | 230 kts | 265° |
| 2026-05-03 21:00 | 17.87309 | -63.24457 | 4010 ft | 230 kts | 265° |
| 2026-05-03 21:01 | 17.87222 | -63.26124 | 4004 ft | 229 kts | 265° |
| 2026-05-03 21:01 | 17.87139 | -63.27780 | 4009 ft | 230 kts | 265° |
| 2026-05-03 21:01 | 17.87052 | -63.29452 | 4009 ft | 229 kts | 265° |
| 2026-05-03 21:01 | 17.86972 | -63.31100 | 3729 ft | 226 kts | 265° |
| 2026-05-03 21:02 | 17.86894 | -63.32744 | 3242 ft | 224 kts | 265° |
| 2026-05-03 21:02 | 17.86883 | -63.34369 | 2732 ft | 222 kts | 280° |
| 2026-05-03 21:02 | 17.87473 | -63.35840 | 2606 ft | 223 kts | 309° |
| 2026-05-03 21:02 | 17.88658 | -63.36859 | 2601 ft | 222 kts | 339° |
| 2026-05-03 21:03 | 17.90130 | -63.37158 | 2610 ft | 215 kts | 9° |
| 2026-05-03 21:03 | 17.91532 | -63.36700 | 2609 ft | 210 kts | 36° |
| 2026-05-03 21:03 | 17.92671 | -63.35878 | 2611 ft | 210 kts | 39° |
| 2026-05-03 21:03 | 17.93865 | -63.35003 | 2610 ft | 209 kts | 38° |
| 2026-05-03 21:04 | 17.95050 | -63.34136 | 2608 ft | 209 kts | 38° |
| 2026-05-03 21:04 | 17.96242 | -63.33264 | 2607 ft | 208 kts | 38° |
| 2026-05-03 21:04 | 17.97421 | -63.32402 | 2611 ft | 210 kts | 39° |
| 2026-05-03 21:04 | 17.98616 | -63.31530 | 2610 ft | 209 kts | 38° |
| 2026-05-03 21:05 | 17.99781 | -63.30684 | 2605 ft | 210 kts | 38° |
| 2026-05-03 21:05 | 18.00847 | -63.29659 | 2609 ft | 206 kts | 56° |
| 2026-05-03 21:05 | 18.01523 | -63.28356 | 2609 ft | 203 kts | 75° |
| 2026-05-03 21:05 | 18.01802 | -63.26912 | 2609 ft | 201 kts | 84° |
| 2026-05-03 21:06 | 18.02003 | -63.25463 | 2603 ft | 201 kts | 84° |
| 2026-05-03 21:06 | 18.02208 | -63.24016 | 2324 ft | 198 kts | 84° |
| 2026-05-03 21:06 | 18.02411 | -63.22610 | 2104 ft | 191 kts | 83° |
| 2026-05-03 21:06 | 18.02607 | -63.21268 | 1858 ft | 176 kts | 82° |
| 2026-05-03 21:07 | 18.02780 | -63.20090 | 1607 ft | 152 kts | 84° |
| 2026-05-03 21:07 | 18.02927 | -63.19070 | 1402 ft | 137 kts | 82° |
| 2026-05-03 21:07 | 18.03058 | -63.18173 | 1232 ft | 131 kts | 83° |
| 2026-05-03 21:07 | 18.03193 | -63.17235 | 1058 ft | 129 kts | 82° |
| 2026-05-03 21:08 | 18.03324 | -63.16307 | 896 ft | 129 kts | 84° |
| 2026-05-03 21:08 | 18.03457 | -63.15361 | 726 ft | 132 kts | 84° |
| 2026-05-03 21:08 | 18.03580 | -63.14416 | 561 ft | 130 kts | 83° |
| 2026-05-03 21:08 | 18.03697 | -63.13474 | 380 ft | 132 kts | 82° |
| 2026-05-03 21:09 | 18.03865 | -63.12533 | 198 ft | 130 kts | 82° |
| 2026-05-03 21:09 | 18.03978 | -63.11692 | 55 ft | 127 kts | 82° |
| 2026-05-03 21:09 | 18.04062 | -63.11108 | 23 ft | 109 kts | 82° |
| 2026-05-03 21:09 | 18.04142 | -63.10516 | 23 ft | 82 kts | 81° |
| 2026-05-03 21:10 | 18.04209 | -63.10049 | 20 ft | 39 kts | 81° |
| 2026-05-03 21:10 | 18.04275 | -63.09885 | 22 ft | 16 kts | 74° |
| 2026-05-03 21:10 | 18.04234 | -63.09913 | 20 ft | 22 kts | 261° |
| 2026-05-03 21:10 | 18.04196 | -63.10165 | 20 ft | 47 kts | 261° |
| 2026-05-03 21:11 | 18.04136 | -63.10588 | 21 ft | 64 kts | 262° |
| 2026-05-03 21:11 | 18.04076 | -63.11024 | 22 ft | 35 kts | 262° |
| 2026-05-03 21:11 | 18.04068 | -63.11090 | 22 ft | 7 kts | 263° |
| 2026-05-03 21:11 | 18.04060 | -63.11145 | 25 ft | 10 kts | 261° |
| 2026-05-03 21:12 | 18.04048 | -63.11228 | 24 ft | 13 kts | 265° |
| 2026-05-03 21:12 | 18.04110 | -63.11292 | 21 ft | 15 kts | 350° |
| 2026-05-03 21:12 | 18.04217 | -63.11309 | 21 ft | 14 kts | 357° |
| 2026-05-03 21:12 | 18.04238 | -63.11361 | 21 ft | 10 kts | 265° |
| 2026-05-03 21:13 | 18.04263 | -63.11420 | 21 ft | 11 kts | 341° |
| 2026-05-03 21:13 | 18.04318 | -63.11430 | 21 ft | 0 kts | 351° |